AirNav   Duncan Aviation - Near you to keep you flying
 
 494 users online  

NC48 Safe Field Airport
Wallace, North Carolina, USA

GOING TO WALLACE?


FAA INFORMATION EFFECTIVE 03 NOVEMBER 2022

Location

FAA Identifier: NC48
Lat/Long: 34-45-00.3900N 078-03-41.4700W
34-45.006500N 078-03.691167W
34.7501083,-78.0615194
(estimated)
Elevation: 50 ft. / 15 m (estimated)
Variation: 07W (1985)
From city: 3 miles NW of WALLACE, NC
Time zone: UTC -5 (UTC -4 during Daylight Saving Time)
Zip code: 28466

Airport Operations

Airport use: Private use. Permission required prior to landing
Activation date: 11/1989
Control tower: no
ARTCC: WASHINGTON CENTER
FSS: RALEIGH FLIGHT SERVICE STATION
Attendance: 
Wind indicator: no
Segmented circle: no

Airport Communications

WX AWOS-3 at DPL (16 nm N): 120.675 (910-296-9688)

Nearby radio navigation aids

VOR radial/distance  VOR name  Freq  Var
ILMr346/25.6WILMINGTON VORTAC117.0007W

 
NDB name  Hdg/Dist  Freq  Var  ID
CLINTON141/20.041209WCTZ -.-. - --..
DIXON298/32.019808WDIW -.. .. .--

Airport Services

Runway Information

Runway 10/28

Dimensions: 3000 x 70 ft. / 914 x 21 m
Surface: turf
RUNWAY 10  RUNWAY 28
Traffic pattern: leftleft
Obstructions: none30 ft. pline, 200 ft. from runway

Airport Ownership and Management from official FAA records

Ownership: Privately-owned
Owner: CAROLYN M. COLWELL
6990 S NC 41
WALLACE, NC 28466
Phone 910-285-5679
910-289-5148 CELL
Manager: CAROLYN M. COLWELL
6990 S NC 41
WALLACE, NC 28466
Phone 910-285-5679
910-289-5148 CELL

Additional Remarks

FOR CD CTC WASHINGTON ARTCC AT 703-771-3587.

Instrument Procedures

There are no published instrument procedures at NC48.

Some nearby airports with instrument procedures:

KACZ - Henderson Field Airport (3 nm SE)
KDPL - Duplin County Airport (16 nm N)
KCTZ - Clinton-Sampson County Airport (20 nm NW)
KOAJ - Albert J Ellis Airport (23 nm E)
KEYF - Curtis L Brown Jr. Field Airport (27 nm W)
 
Loc | Ops | Rwys | IFR | FBO | Links
Com | Nav | Svcs | Stats | Notes
Area around NC48 (Safe Field Airport)
 
Road maps at: MapQuest Bing Google
 
Aerial photo
No photo
 
Sectional chart

 
Airport distance calculator
Flying to Safe Field Airport? Find the distance to fly.

From to NC48

Sunrise and sunset
Times for 28-Nov-2022
 Local
(UTC-5)
 Zulu
(UTC)
Morning civil twilight06:3211:32
Sunrise07:0012:00
Sunset17:0122:01
Evening civil twilight17:2822:28

Current date and time
Zulu (UTC)  28-Nov-2022 07:21:20
Local (UTC-5)  28-Nov-2022 02:21:20
 
METAR
KDPL 
16nm N 
280655Z AUTO 25008KT 7SM CLR 15/09 A2975 RMK AO2
KCTZ 
21nm NW 
280655Z AUTO 25008KT 10SM CLR 16/10 A2976 RMK AO2 T01550096
KOAJ 
22nm E 
280656Z AUTO 24010KT 10SM CLR 16/09 A2976 RMK AO2 SLP078 T01560089
KEYF 
27nm W 
280655Z AUTO 25007KT 10SM CLR 15/08 A2978 RMK AO2 T01550083
KILM 
30nm S 
280653Z AUTO 24010KT 10SM CLR 17/09 A2978 RMK AO2 SLP084 T01670089 $
KNCA 
30nm E 
280656Z AUTO 25010G18KT 10SM CLR 16/09 A2974 RMK AO2 SLP074 T01610089 $
TAF
KOAJ 
22nm E 
280520Z 2806/2906 25009G17KT P6SM SKC FM280700 26008KT P6SM SKC FM281500 27008G13KT P6SM SKC FM282100 30006KT P6SM FEW090 AMD LTD TO CLD VIS AND WIND
NOTAMs
Click for the latest NOTAMs
NOTAMs are issued by the DoD/FAA and will open in a separate window not controlled by AirNav.

 

 
 

Would you like to see your business listed on this page?

 If your business provides an interesting product or service to pilots, flight crews, aircraft, or users of the Safe Field Airport, you should consider listing it here.  To start the listing process, click on the button below
 
Add a business
 

Other Pages about Safe Field Airport

Update a link
 
Copyright © AirNav, LLC. All rights reserved. Privacy Policy  Contact